createdAt,value
2016-04-04T00:00:03.796Z,13.38
2016-04-04T00:01:03.752Z,13.47
2016-04-04T00:02:03.692Z,13.41
2016-04-04T00:03:03.649Z,13.49
2016-04-04T00:04:03.604Z,13.27
2016-04-04T00:05:03.576Z,13.35
2016-04-04T00:06:03.515Z,13.28
2016-04-04T00:07:03.456Z,13.3
2016-04-04T00:08:03.396Z,13.3
2016-04-04T00:09:03.367Z,13.22
2016-04-04T00:10:03.323Z,13.27
2016-04-04T00:11:03.264Z,13.23
2016-04-04T00:12:03.204Z,13.19
2016-04-04T00:13:03.159Z,13.27
2016-04-04T00:14:03.116Z,13.38
2016-04-04T00:15:03.072Z,13.38
2016-04-04T00:16:03.028Z,13.46
2016-04-04T00:17:02.967Z,13.49
2016-04-04T00:18:02.922Z,13.39
2016-04-04T00:19:02.879Z,13.42
2016-04-04T00:20:02.866Z,13.46
2016-04-04T00:21:02.791Z,13.53
2016-04-04T00:22:02.716Z,13.6
2016-04-04T00:23:02.655Z,13.6
2016-04-04T00:24:02.627Z,13.53
2016-04-04T00:25:02.598Z,13.5
2016-04-04T00:26:02.523Z,13.5
2016-04-04T00:27:02.494Z,13.57
2016-04-04T00:28:02.419Z,13.5
2016-04-04T00:29:02.421Z,13.6
2016-04-04T00:30:02.362Z,13.59
2016-04-04T00:31:02.301Z,13.42
2016-04-04T00:32:02.242Z,13.44
2016-04-04T00:33:02.182Z,13.5
2016-04-04T00:34:02.138Z,13.5
2016-04-04T00:35:02.109Z,13.37
2016-04-04T00:36:02.050Z,13.19
2016-04-04T00:37:01.989Z,13.22
2016-04-04T00:38:01.961Z,13.28
2016-04-04T00:39:01.887Z,13.31
2016-04-04T00:40:01.856Z,13.23
2016-04-04T00:41:01.798Z,13.16
2016-04-04T00:42:01.769Z,13.15
2016-04-04T00:43:01.708Z,13.31
2016-04-04T00:44:01.664Z,13.44
2016-04-04T00:45:01.606Z,13.38
2016-04-04T00:46:00.827Z,13.42
2016-04-04T00:47:01.580Z,13.38
2016-04-04T00:48:01.472Z,13.41
2016-04-04T00:49:01.413Z,13.47
2016-04-04T00:50:01.368Z,13.46
2016-04-04T00:51:01.324Z,13.47
2016-04-04T00:52:01.264Z,13.46
2016-04-04T00:53:01.236Z,13.42
2016-04-04T00:54:01.191Z,13.47
2016-04-04T00:55:01.116Z,13.47
2016-04-04T00:56:01.057Z,13.46
2016-04-04T00:57:01.044Z,13.5
2016-04-04T00:58:00.984Z,13.46
2016-04-04T00:59:00.940Z,13.49
2016-04-04T01:00:00.895Z,13.46
2016-04-04T01:01:00.835Z,13.41
2016-04-04T01:02:00.807Z,13.47
2016-04-04T01:03:00.716Z,13.44
2016-04-04T01:04:00.688Z,13.47
2016-04-04T01:05:00.643Z,13.42
2016-04-04T01:06:00.584Z,13.41
2016-04-04T01:07:00.524Z,13.39
2016-04-04T01:08:00.480Z,13.35
2016-04-04T01:09:00.420Z,13.31
2016-04-04T01:10:00.392Z,13.25
2016-04-04T01:11:00.379Z,13.22
2016-04-04T01:12:00.287Z,13.12
2016-04-04T01:13:00.228Z,13.16
2016-04-04T01:14:00.198Z,13.2
2016-04-04T01:15:00.139Z,13.16
2016-04-04T01:16:00.095Z,13.05
2016-04-04T01:17:00.035Z,13.05
2016-04-04T01:17:59.991Z,12.98
2016-04-04T01:18:59.947Z,12.98
2016-04-04T01:19:59.886Z,12.91
2016-04-04T01:20:59.858Z,12.83
2016-04-04T01:21:59.799Z,12.91
2016-04-04T01:22:59.739Z,13.01
2016-04-04T01:23:59.695Z,13.18
2016-04-04T01:24:59.635Z,13.15
2016-04-04T01:25:59.591Z,13.25
2016-04-04T01:26:59.546Z,13.23
2016-04-04T01:27:59.486Z,13.11
2016-04-04T01:28:59.457Z,13.18
2016-04-04T01:29:59.398Z,13.03
2016-04-04T01:30:59.354Z,12.87
2016-04-04T01:31:59.294Z,12.9
2016-04-04T01:32:59.250Z,12.85
2016-04-04T01:33:59.206Z,12.76
2016-04-04T01:34:59.162Z,12.68
2016-04-04T01:35:59.102Z,12.76
2016-04-04T01:36:59.058Z,12.78
2016-04-04T01:37:59.029Z,12.85
2016-04-04T01:38:58.970Z,12.95
2016-04-04T01:39:58.926Z,12.91
2016-04-04T01:40:58.848Z,12.95
2016-04-04T01:41:58.818Z,12.67
2016-04-04T01:42:58.759Z,12.75
2016-04-04T01:43:58.730Z,12.9
2016-04-04T01:44:57.920Z,12.76
2016-04-04T01:45:58.611Z,12.8
2016-04-04T01:46:58.550Z,12.85
2016-04-04T01:47:58.522Z,12.97
2016-04-04T01:48:58.461Z,12.85
2016-04-04T01:49:58.433Z,12.87
2016-04-04T01:50:58.358Z,12.94
2016-04-04T01:51:58.313Z,12.79
2016-04-04T01:52:58.269Z,12.83
2016-04-04T01:53:58.210Z,12.7
2016-04-04T01:54:58.165Z,12.7
2016-04-04T01:55:58.105Z,12.6
2016-04-04T01:56:58.077Z,12.55
2016-04-04T01:57:58.018Z,12.49
2016-04-04T01:58:57.957Z,12.7
2016-04-04T01:59:57.929Z,12.8
2016-04-04T02:00:57.874Z,12.72
2016-04-04T02:01:57.846Z,12.55
2016-04-04T02:02:57.771Z,12.53
2016-04-04T02:03:57.726Z,12.7
2016-04-04T02:04:57.682Z,12.68
2016-04-04T02:05:57.637Z,12.67
2016-04-04T02:06:57.578Z,12.58
2016-04-04T02:07:57.518Z,12.49
2016-04-04T02:08:57.489Z,12.61
2016-04-04T02:09:57.414Z,12.55
2016-04-04T02:10:57.386Z,12.45
2016-04-04T02:11:57.342Z,12.46
2016-04-04T02:12:57.312Z,12.54
2016-04-04T02:13:57.253Z,12.49
2016-04-04T02:14:57.193Z,12.47
2016-04-04T02:15:57.150Z,12.6
2016-04-04T02:16:57.105Z,12.72
2016-04-04T02:17:57.045Z,12.61
2016-04-04T02:18:56.985Z,12.5
2016-04-04T02:19:56.956Z,12.64
2016-04-04T02:20:56.881Z,12.55
2016-04-04T02:21:56.869Z,12.55
2016-04-04T02:22:56.778Z,12.46
2016-04-04T02:23:56.749Z,12.4
2016-04-04T02:24:55.939Z,12.25
2016-04-04T02:25:56.644Z,12.45
2016-04-04T02:26:56.569Z,12.46
2016-04-04T02:27:56.541Z,12.5
2016-04-04T02:28:56.497Z,12.43
2016-04-04T02:29:56.452Z,12.32
2016-04-04T02:30:56.377Z,12.28
2016-04-04T02:31:56.333Z,12.31
2016-04-04T02:32:56.288Z,12.25
2016-04-04T02:33:56.479Z,12.25
2016-04-04T02:34:56.201Z,12.15
2016-04-04T02:35:56.140Z,12.24
2016-04-04T02:36:56.081Z,12.22
2016-04-04T02:37:56.052Z,12.22
2016-04-04T02:38:55.992Z,12.18
2016-04-04T02:39:55.948Z,12.18
2016-04-04T02:40:55.904Z,12.17
2016-04-04T02:41:55.844Z,12.29
2016-04-04T02:42:55.800Z,12.36
2016-04-04T02:43:55.756Z,12.36
2016-04-04T02:44:55.712Z,12.22
2016-04-04T02:45:55.651Z,12.2
2016-04-04T02:46:55.592Z,12.13
2016-04-04T02:47:55.532Z,12.1
2016-04-04T02:48:55.503Z,12.07
2016-04-04T02:49:55.569Z,12.15
2016-04-04T02:50:55.414Z,11.91
2016-04-04T02:51:55.355Z,12.1
2016-04-04T02:52:55.295Z,12.12
2016-04-04T02:53:55.235Z,11.94
2016-04-04T02:54:55.207Z,12.02
2016-04-04T02:55:55.147Z,12.06
2016-04-04T02:56:55.087Z,12.13
2016-04-04T02:57:55.075Z,12.15
2016-04-04T02:58:54.999Z,12.18
2016-04-04T02:59:54.955Z,12.28
2016-04-04T03:00:54.895Z,12.24
2016-04-04T03:01:54.852Z,12.13
2016-04-04T03:02:54.791Z,12
2016-04-04T03:03:54.746Z,12.04
2016-04-04T03:04:54.703Z,12.09
2016-04-04T03:05:54.674Z,12.17
2016-04-04T03:06:54.599Z,12.04
2016-04-04T03:07:54.547Z,12.13
2016-04-04T03:08:54.504Z,12.1
2016-04-04T03:09:54.460Z,12.06
2016-04-04T03:10:54.399Z,11.9
2016-04-04T03:11:54.340Z,11.97
2016-04-04T03:12:54.296Z,12.03
2016-04-04T03:13:54.267Z,12.09
2016-04-04T03:14:54.207Z,12.15
2016-04-04T03:15:54.179Z,11.95
2016-04-04T03:16:54.103Z,11.94
2016-04-04T03:17:54.059Z,11.84
2016-04-04T03:18:53.984Z,11.75
2016-04-04T03:19:54.065Z,11.91
2016-04-04T03:20:53.895Z,11.77
2016-04-04T03:21:53.851Z,11.95
2016-04-04T03:22:53.807Z,11.94
2016-04-04T03:23:53.762Z,12.06
2016-04-04T03:24:53.703Z,11.97
2016-04-04T03:25:53.659Z,12.04
2016-04-04T03:26:53.598Z,12.04
2016-04-04T03:27:53.555Z,11.9
2016-04-04T03:28:53.511Z,11.86
2016-04-04T03:29:53.450Z,11.73
2016-04-04T03:30:53.406Z,11.72
2016-04-04T03:31:53.347Z,11.9
2016-04-04T03:32:53.318Z,12.02
2016-04-04T03:33:53.242Z,12.07
2016-04-04T03:34:53.230Z,12.03
2016-04-04T03:35:53.155Z,12.07
2016-04-04T03:36:53.110Z,11.9
2016-04-04T03:37:53.050Z,11.9
2016-04-04T03:38:53.006Z,11.8
2016-04-04T03:39:52.963Z,11.83
2016-04-04T03:40:52.902Z,11.87
2016-04-04T03:41:52.842Z,11.86
2016-04-04T03:42:52.799Z,11.75
2016-04-04T03:43:52.754Z,11.9
2016-04-04T03:44:52.693Z,11.94
2016-04-04T03:45:52.635Z,12
2016-04-04T03:46:52.607Z,11.97
2016-04-04T03:47:52.562Z,12.02
2016-04-04T03:48:52.501Z,12.03
2016-04-04T03:49:52.458Z,11.97
2016-04-04T03:50:52.398Z,12.04
2016-04-04T03:51:52.337Z,12.09
2016-04-04T03:52:52.309Z,12.13
2016-04-04T03:53:52.265Z,12.22
2016-04-04T03:54:52.206Z,12.25
2016-04-04T03:55:52.192Z,12.35
2016-04-04T03:56:52.101Z,12.36
2016-04-04T03:57:52.089Z,12.24
2016-04-04T03:58:52.060Z,12.2
2016-04-04T03:59:51.969Z,12.2
2016-04-04T04:00:51.894Z,12.24
2016-04-04T04:01:51.850Z,12.25
2016-04-04T04:02:51.805Z,12.24
2016-04-04T04:03:51.808Z,12.37
2016-04-04T04:04:51.717Z,12.36
2016-04-04T04:05:51.658Z,12.39
2016-04-04T04:06:51.614Z,12.45
2016-04-04T04:07:51.585Z,12.37
2016-04-04T04:08:51.509Z,12.45
2016-04-04T04:09:51.465Z,12.47
2016-04-04T04:10:51.422Z,12.47
2016-04-04T04:11:51.345Z,12.37
2016-04-04T04:12:51.333Z,12.37
2016-04-04T04:13:51.242Z,12.29
2016-04-04T04:14:51.214Z,12.24
2016-04-04T04:15:51.169Z,12.24
2016-04-04T04:16:51.125Z,12.31
2016-04-04T04:17:51.066Z,12.25
2016-04-04T04:18:51.005Z,12.24
2016-04-04T04:19:50.961Z,12.39
2016-04-04T04:20:50.901Z,12.39
2016-04-04T04:21:50.858Z,12.25
2016-04-04T04:22:50.829Z,12.29
2016-04-04T04:23:50.768Z,12.27
2016-04-04T04:24:50.741Z,12.1
2016-04-04T04:25:50.680Z,12.04
2016-04-04T04:26:50.621Z,12.07
2016-04-04T04:27:50.576Z,12.06
2016-04-04T04:28:50.517Z,12.09
2016-04-04T04:29:50.488Z,12.2
2016-04-04T04:30:50.428Z,12.15
2016-04-04T04:31:50.384Z,12.18
2016-04-04T04:32:50.323Z,12.27
2016-04-04T04:33:50.265Z,12.12
2016-04-04T04:34:50.220Z,12.21
2016-04-04T04:35:50.160Z,12.2
2016-04-04T04:36:50.148Z,12.15
2016-04-04T04:37:50.103Z,12
2016-04-04T04:38:50.012Z,11.95
2016-04-04T04:39:49.983Z,11.91
2016-04-04T04:40:49.909Z,11.78
2016-04-04T04:41:49.880Z,11.81
2016-04-04T04:42:49.820Z,11.91
2016-04-04T04:43:49.791Z,12.03
2016-04-04T04:44:49.716Z,12.12
2016-04-04T04:45:49.656Z,12.13
2016-04-04T04:46:49.627Z,12.15
2016-04-04T04:47:49.599Z,11.94
2016-04-04T04:48:49.539Z,11.97
2016-04-04T04:49:49.511Z,11.91
2016-04-04T04:50:49.419Z,11.95
2016-04-04T04:51:49.360Z,12.02
2016-04-04T04:52:49.331Z,12.12
2016-04-04T04:53:49.271Z,12.07
2016-04-04T04:54:49.227Z,12.1
2016-04-04T04:55:49.198Z,11.91
2016-04-04T04:56:49.138Z,12.06
2016-04-04T04:57:49.094Z,12.1
2016-04-04T04:58:49.019Z,12.09
2016-04-04T04:59:48.974Z,12.17
2016-04-04T05:00:48.915Z,12.17
2016-04-04T05:01:48.855Z,12.1
2016-04-04T05:02:48.842Z,12.18
2016-04-04T05:03:48.768Z,12.25
2016-04-04T05:04:48.848Z,12.07
2016-04-04T05:05:48.663Z,12.15
2016-04-04T05:06:48.634Z,12.12
2016-04-04T05:07:48.590Z,12.25
2016-04-04T05:08:48.515Z,12.18
2016-04-04T05:09:48.470Z,12.25
2016-04-04T05:10:48.411Z,12.24
2016-04-04T05:11:48.397Z,12.22
2016-04-04T05:12:48.307Z,12.28
2016-04-04T05:13:48.278Z,12.32
2016-04-04T05:14:48.233Z,12.32
2016-04-04T05:15:48.175Z,12.24
2016-04-04T05:16:48.131Z,12.21
2016-04-04T05:17:48.086Z,12.2
2016-04-04T05:18:48.010Z,12.28
2016-04-04T05:19:48.139Z,12.31
2016-04-04T05:20:47.938Z,12.29
2016-04-04T05:21:47.877Z,12.27
2016-04-04T05:22:47.818Z,12.28
2016-04-04T05:23:47.789Z,12.28
2016-04-04T05:24:47.730Z,12.29
2016-04-04T05:25:47.654Z,12.29
2016-04-04T05:26:47.646Z,12.25
2016-04-04T05:27:49.707Z,12.28
2016-04-04T05:28:47.537Z,12.21
2016-04-04T05:29:47.477Z,12.2
2016-04-04T05:30:47.449Z,12.21
2016-04-04T05:31:47.405Z,12.22
2016-04-04T05:32:47.345Z,12.28
2016-04-04T05:33:47.270Z,12.29
2016-04-04T05:34:47.350Z,12.36
2016-04-04T05:35:47.165Z,12.25
2016-04-04T05:36:47.137Z,12.37
2016-04-04T05:37:47.077Z,12.36
2016-04-04T05:38:47.049Z,12.39
2016-04-04T05:39:46.989Z,12.46
2016-04-04T05:40:46.929Z,12.5
2016-04-04T05:41:46.884Z,12.49
2016-04-04T05:42:46.684Z,12.54
2016-04-04T05:43:46.797Z,12.6
2016-04-04T05:44:46.752Z,12.53
2016-04-04T05:45:46.693Z,12.53
2016-04-04T05:46:46.664Z,12.5
2016-04-04T05:47:46.573Z,12.57
2016-04-04T05:48:46.529Z,12.49
2016-04-04T05:49:46.516Z,12.6
2016-04-04T05:50:46.425Z,12.62
2016-04-04T05:51:46.411Z,12.53
2016-04-04T05:52:46.336Z,12.58
2016-04-04T05:53:46.276Z,12.49
2016-04-04T05:54:46.233Z,12.58
2016-04-04T05:55:46.188Z,12.49
2016-04-04T05:56:46.159Z,12.54
2016-04-04T05:57:46.100Z,12.47
2016-04-04T05:58:46.041Z,12.54
2016-04-04T05:59:45.980Z,12.47
2016-04-04T06:00:45.967Z,12.67
2016-04-04T06:01:45.907Z,12.65
2016-04-04T06:02:45.832Z,12.67
2016-04-04T06:03:45.631Z,12.76
2016-04-04T06:04:46.071Z,12.75
2016-04-04T06:05:45.684Z,12.67
2016-04-04T06:06:45.640Z,12.68
2016-04-04T06:07:45.642Z,12.72
2016-04-04T06:08:45.551Z,12.79
2016-04-04T06:09:45.492Z,12.8
2016-04-04T06:10:45.447Z,12.86
2016-04-04T06:11:45.403Z,12.82
2016-04-04T06:12:45.343Z,12.85
2016-04-04T06:13:45.314Z,12.91
2016-04-04T06:14:45.239Z,13.01
2016-04-04T06:15:45.195Z,13.03
2016-04-04T06:16:45.166Z,13.01
2016-04-04T06:17:45.091Z,13.03
2016-04-04T06:18:45.047Z,13.04
2016-04-04T06:19:45.081Z,13.23
2016-04-04T06:20:44.942Z,13.22
2016-04-04T06:21:44.914Z,13.08
2016-04-04T06:22:44.855Z,13.3
2016-04-04T06:23:44.810Z,13.19
2016-04-04T06:24:44.735Z,13.3
2016-04-04T06:25:44.705Z,13.42
2016-04-04T06:26:44.646Z,13.39
2016-04-04T06:27:44.586Z,13.37
2016-04-04T06:28:44.557Z,13.46
2016-04-04T06:29:44.514Z,13.57
2016-04-04T06:30:44.454Z,13.62
2016-04-04T06:31:44.410Z,13.74
2016-04-04T06:32:44.349Z,13.67
2016-04-04T06:33:44.338Z,13.68
2016-04-04T06:34:44.246Z,13.75
2016-04-04T06:35:44.201Z,13.81
2016-04-04T06:36:44.190Z,13.81
2016-04-04T06:37:44.129Z,13.87
2016-04-04T06:38:44.085Z,13.9
2016-04-04T06:39:44.009Z,13.9
2016-04-04T06:40:43.965Z,13.97
2016-04-04T06:41:43.921Z,14.03
2016-04-04T06:42:43.876Z,13.97
2016-04-04T06:43:43.833Z,14.07
2016-04-04T06:44:43.773Z,14.05
2016-04-04T06:45:43.729Z,14.17
2016-04-04T06:46:43.684Z,14.03
2016-04-04T06:47:43.625Z,13.97
2016-04-04T06:48:43.597Z,13.93
2016-04-04T06:49:43.474Z,13.96
2016-04-04T06:50:43.492Z,13.96
2016-04-04T06:51:43.447Z,14.07
2016-04-04T06:52:43.388Z,14.14
2016-04-04T06:53:43.344Z,14.14
2016-04-04T06:54:43.300Z,14.18
2016-04-04T06:55:43.255Z,14.17
2016-04-04T06:56:42.446Z,14.26
2016-04-04T06:57:43.152Z,14.33
2016-04-04T06:58:43.091Z,14.37
2016-04-04T06:59:43.063Z,14.45
2016-04-04T07:00:42.993Z,14.65
2016-04-04T07:01:42.933Z,14.73
2016-04-04T07:02:42.904Z,14.73
2016-04-04T07:03:42.860Z,14.85
2016-04-04T07:04:42.862Z,14.89
2016-04-04T07:05:42.757Z,14.99
2016-04-04T07:06:42.712Z,14.92
2016-04-04T07:07:42.684Z,14.92
2016-04-04T07:08:42.654Z,14.94
2016-04-04T07:09:42.579Z,14.91
2016-04-04T07:10:42.534Z,14.96
2016-04-04T07:11:42.475Z,15
2016-04-04T07:12:42.431Z,14.96
2016-04-04T07:13:42.386Z,14.99
2016-04-04T07:14:42.328Z,14.99
2016-04-04T07:15:42.283Z,15
2016-04-04T07:16:42.222Z,15.1
2016-04-04T07:17:42.163Z,15.11
2016-04-04T07:18:42.119Z,15.07
2016-04-04T07:19:42.091Z,15.27
2016-04-04T07:20:42.030Z,15.28
2016-04-04T07:21:42.003Z,15.33
2016-04-04T07:22:41.942Z,15.51
2016-04-04T07:23:41.883Z,15.46
2016-04-04T07:24:41.854Z,15.52
2016-04-04T07:25:41.794Z,15.59
2016-04-04T07:26:41.750Z,15.7
2016-04-04T07:27:41.722Z,15.77
2016-04-04T07:28:41.662Z,15.76
2016-04-04T07:29:41.601Z,15.73
2016-04-04T07:30:41.574Z,15.92
2016-04-04T07:31:41.514Z,15.94
2016-04-04T07:32:41.469Z,15.86
2016-04-04T07:33:41.409Z,16
2016-04-04T07:34:41.366Z,16.01
2016-04-04T07:35:41.336Z,15.92
2016-04-04T07:36:41.277Z,16
2016-04-04T07:37:41.264Z,15.98
2016-04-04T07:38:41.220Z,15.95
2016-04-04T07:39:41.160Z,16
2016-04-04T07:40:41.085Z,16.05
2016-04-04T07:41:41.056Z,16.2
2016-04-04T07:42:40.995Z,16.12
2016-04-04T07:43:40.937Z,16.17
2016-04-04T07:44:40.909Z,16.24
2016-04-04T07:45:40.848Z,16.32
2016-04-04T07:46:40.803Z,16.31
2016-04-04T07:47:40.759Z,16.33
2016-04-04T07:48:40.716Z,16.31
2016-04-04T07:49:40.547Z,16.32
2016-04-04T07:50:40.611Z,16.38
2016-04-04T07:51:40.567Z,16.36
2016-04-04T07:52:40.538Z,16.39
2016-04-04T07:53:40.480Z,16.47
2016-04-04T07:54:40.435Z,16.47
2016-04-04T07:55:40.374Z,16.43
2016-04-04T07:56:40.331Z,16.46
2016-04-04T07:57:40.302Z,16.43
2016-04-04T07:58:40.243Z,16.38
2016-04-04T07:59:40.198Z,16.42
2016-04-04T08:00:40.154Z,16.33
2016-04-04T08:01:40.093Z,16.36
2016-04-04T08:02:40.050Z,16.49
2016-04-04T08:03:40.006Z,16.43
2016-04-04T08:04:39.977Z,16.51
2016-04-04T08:05:39.902Z,16.47
2016-04-04T08:06:39.858Z,16.51
2016-04-04T08:07:39.798Z,16.56
2016-04-04T08:08:39.753Z,16.61
2016-04-04T08:09:39.725Z,16.64
2016-04-04T08:10:39.681Z,16.66
2016-04-04T08:11:39.621Z,16.66
2016-04-04T08:12:39.576Z,16.75
2016-04-04T08:13:39.533Z,16.75
2016-04-04T08:14:39.488Z,16.86
2016-04-04T08:15:39.459Z,16.81
2016-04-04T08:16:39.400Z,16.79
2016-04-04T08:17:39.340Z,16.94
2016-04-04T08:18:39.297Z,16.93
2016-04-04T08:19:39.267Z,16.97
2016-04-04T08:20:39.223Z,16.94
2016-04-04T08:21:39.148Z,17.06
2016-04-04T08:22:39.103Z,17.02
2016-04-04T08:23:39.060Z,17.01
2016-04-04T08:24:39.016Z,17.09
2016-04-04T08:25:38.972Z,17.12
2016-04-04T08:26:38.927Z,17.09
2016-04-04T08:27:38.883Z,17.15
2016-04-04T08:28:38.838Z,17.26
2016-04-04T08:29:38.780Z,17.31
2016-04-04T08:30:38.719Z,17.34
2016-04-04T08:31:38.691Z,17.42
2016-04-04T08:32:38.646Z,17.46
2016-04-04T08:33:38.577Z,17.49
2016-04-04T08:34:38.552Z,17.63
2016-04-04T08:35:38.465Z,17.64
2016-04-04T08:36:38.409Z,17.7
2016-04-04T08:37:38.321Z,17.79
2016-04-04T08:38:38.288Z,17.87
2016-04-04T08:39:38.239Z,17.98
2016-04-04T08:40:38.190Z,18.08
2016-04-04T08:41:38.142Z,18.07
2016-04-04T08:42:38.077Z,18.08
2016-04-04T08:43:38.032Z,18.16
2016-04-04T08:44:37.986Z,18.41
2016-04-04T08:45:37.941Z,18.41
2016-04-04T08:46:37.926Z,18.49
2016-04-04T08:47:37.832Z,18.53
2016-04-04T08:48:37.804Z,18.56
2016-04-04T08:49:37.774Z,18.65
2016-04-04T08:50:37.713Z,18.81
2016-04-04T08:51:37.684Z,18.92
2016-04-04T08:52:37.608Z,18.84
2016-04-04T08:53:37.579Z,18.96
2016-04-04T08:54:37.519Z,19.15
2016-04-04T08:55:37.459Z,19.3
2016-04-04T08:56:37.445Z,19.37
2016-04-04T08:57:37.369Z,19.49
2016-04-04T08:58:37.325Z,19.49
2016-04-04T08:59:37.281Z,19.55
2016-04-04T09:00:37.253Z,19.81
2016-04-04T09:01:37.193Z,19.95
2016-04-04T09:02:37.179Z,19.96
2016-04-04T09:03:37.136Z,20.1
2016-04-04T09:04:37.044Z,20.29
2016-04-04T09:05:37.016Z,20.37
2016-04-04T09:06:36.971Z,20.5
2016-04-04T09:07:36.912Z,20.56
2016-04-04T09:08:36.868Z,20.69
2016-04-04T09:09:36.824Z,20.78
2016-04-04T09:10:36.779Z,20.84
2016-04-04T09:11:36.735Z,20.96
2016-04-04T09:12:36.690Z,21.03
2016-04-04T09:13:36.646Z,21
2016-04-04T09:14:36.603Z,21.03
2016-04-04T09:15:36.559Z,21.25
2016-04-04T09:16:36.514Z,21.4
2016-04-04T09:17:36.454Z,21.57
2016-04-04T09:18:36.410Z,21.48
2016-04-04T09:19:36.381Z,21.7
2016-04-04T09:20:36.337Z,21.72
2016-04-04T09:21:36.278Z,21.93
2016-04-04T09:22:36.249Z,22.04
2016-04-04T09:23:36.189Z,22.14
2016-04-04T09:24:36.161Z,22.25
2016-04-04T09:25:36.101Z,22.33
2016-04-04T09:26:36.056Z,22.38
2016-04-04T09:27:36.013Z,22.39
2016-04-04T09:28:35.969Z,22.38
2016-04-04T09:29:35.174Z,22.54
2016-04-04T09:30:35.880Z,22.53
2016-04-04T09:31:35.852Z,22.41
2016-04-04T09:32:35.807Z,22.54
2016-04-04T09:33:35.747Z,22.72
2016-04-04T09:34:35.719Z,22.93
2016-04-04T09:35:35.690Z,22.6
2016-04-04T09:36:35.615Z,22.84
2016-04-04T09:37:35.571Z,23.09
2016-04-04T09:38:35.543Z,23.06
2016-04-04T09:39:35.482Z,23.15
2016-04-04T09:40:35.438Z,23.17
2016-04-04T09:41:35.409Z,23.27
2016-04-04T09:42:35.349Z,23.21
2016-04-04T09:43:35.306Z,23.06
2016-04-04T09:44:35.262Z,23.31
2016-04-04T09:45:35.249Z,23.28
2016-04-04T09:46:35.189Z,23.48
2016-04-04T09:47:35.112Z,23.61
2016-04-04T09:48:35.085Z,23.86
2016-04-04T09:49:35.041Z,23.83
2016-04-04T09:50:35.012Z,24.05
2016-04-04T09:51:34.952Z,24.1
2016-04-04T09:52:34.939Z,24.06
2016-04-04T09:53:34.878Z,24.06
2016-04-04T09:54:34.835Z,24.06
2016-04-04T09:55:34.792Z,24.14
2016-04-04T09:56:34.778Z,24.02
2016-04-04T09:57:34.703Z,24.02
2016-04-04T09:58:34.674Z,23.96
2016-04-04T09:59:34.599Z,23.81
2016-04-04T10:00:34.570Z,23.99
2016-04-04T10:01:34.526Z,23.99
2016-04-04T10:02:34.483Z,23.91
2016-04-04T10:03:34.438Z,23.46
2016-04-04T10:04:34.408Z,23.86
2016-04-04T10:05:34.333Z,24.03
2016-04-04T10:06:34.305Z,23.8
2016-04-04T10:07:34.277Z,23.81
2016-04-04T10:08:34.201Z,23.98
2016-04-04T10:09:34.162Z,23.99
2016-04-04T10:10:34.132Z,23.8
2016-04-04T10:11:34.090Z,23.96
2016-04-04T10:12:34.076Z,24.21
2016-04-04T10:13:34.001Z,24.32
2016-04-04T10:14:33.940Z,24.5
2016-04-04T10:15:33.896Z,24.45
2016-04-04T10:16:33.868Z,24.39
2016-04-04T10:17:33.840Z,24.42
2016-04-04T10:18:33.764Z,24.57
2016-04-04T10:19:33.751Z,24.73
2016-04-04T10:20:33.706Z,24.8
2016-04-04T10:21:33.662Z,24.84
2016-04-04T10:22:33.603Z,24.85
2016-04-04T10:23:33.559Z,24.95
2016-04-04T10:24:33.514Z,25.01
2016-04-04T10:25:33.470Z,25.04
2016-04-04T10:26:33.458Z,24.91
2016-04-04T10:27:33.383Z,24.93
2016-04-04T10:28:33.338Z,24.92
2016-04-04T10:29:33.325Z,24.91
2016-04-04T10:30:33.265Z,25.08
2016-04-04T10:31:33.221Z,25.03
2016-04-04T10:32:33.191Z,24.93
2016-04-04T10:33:33.133Z,24.92
2016-04-04T10:34:33.089Z,25.18
2016-04-04T10:35:33.060Z,25.11
2016-04-04T10:36:32.999Z,25.4
2016-04-04T10:37:32.971Z,25.53
2016-04-04T10:38:32.911Z,25.7
2016-04-04T10:39:32.898Z,25.95
2016-04-04T10:40:32.683Z,25.55
2016-04-04T10:41:32.810Z,25.65
2016-04-04T10:42:32.751Z,25.95
2016-04-04T10:43:32.706Z,26.02
2016-04-04T10:44:32.678Z,25.93
2016-04-04T10:45:32.618Z,26.06
2016-04-04T10:46:32.605Z,25.73
2016-04-04T10:47:32.545Z,26.03
2016-04-04T10:48:32.501Z,25.93
2016-04-04T10:49:32.472Z,25.48
2016-04-04T10:50:32.615Z,25.48
2016-04-04T10:51:32.353Z,25.5
2016-04-04T10:52:32.325Z,25.38
2016-04-04T10:53:32.264Z,25.5
2016-04-04T10:54:32.080Z,25.25
2016-04-04T10:55:32.207Z,24.98
2016-04-04T10:56:32.163Z,25.08
2016-04-04T10:57:32.103Z,25.06
2016-04-04T10:58:32.059Z,25.29
2016-04-04T10:59:32.046Z,25.5
2016-04-04T11:00:31.986Z,25.28
2016-04-04T11:01:31.942Z,25.17
2016-04-04T11:02:31.898Z,25.25
2016-04-04T11:03:31.838Z,25.33
2016-04-04T11:04:31.810Z,25.43
2016-04-04T11:05:31.749Z,25.32
2016-04-04T11:06:31.722Z,25.06
2016-04-04T11:07:31.677Z,25.13
2016-04-04T11:08:31.721Z,25.23
2016-04-04T11:09:31.582Z,25.32
2016-04-04T11:10:31.695Z,25.01
2016-04-04T11:11:31.509Z,25.1
2016-04-04T11:12:31.465Z,24.95
2016-04-04T11:13:31.437Z,25.18
2016-04-04T11:14:31.393Z,25.35
2016-04-04T11:15:31.333Z,25.38
2016-04-04T11:16:31.289Z,25.43
2016-04-04T11:17:31.089Z,25.17
2016-04-04T11:18:31.217Z,25.21
2016-04-04T11:19:31.156Z,25.07
2016-04-04T11:20:31.112Z,25.22
2016-04-04T11:21:31.100Z,24.89
2016-04-04T11:22:31.040Z,25.06
2016-04-04T11:23:30.995Z,25.08
2016-04-04T11:24:30.952Z,25.18
2016-04-04T11:25:30.908Z,25.28
2016-04-04T11:26:30.863Z,25.35
2016-04-04T11:27:30.835Z,25.36
2016-04-04T11:28:30.791Z,25.38
2016-04-04T11:29:30.746Z,25.35
2016-04-04T11:30:30.686Z,25.5
2016-04-04T11:31:30.641Z,25.51
2016-04-04T11:32:30.613Z,25.47
2016-04-04T11:33:30.568Z,25.03
2016-04-04T11:34:30.556Z,25.25
2016-04-04T11:35:30.496Z,25.5
2016-04-04T11:36:30.467Z,25.55
2016-04-04T11:37:30.439Z,25.53
2016-04-04T11:38:30.369Z,25.26
2016-04-04T11:39:29.606Z,25.17
2016-04-04T11:40:30.281Z,25.23
2016-04-04T11:41:30.251Z,25.46
2016-04-04T11:42:30.192Z,25.53
2016-04-04T11:43:30.164Z,25.6
2016-04-04T11:44:30.134Z,25.48
2016-04-04T11:45:30.075Z,25.55
2016-04-04T11:46:30.030Z,25.66
2016-04-04T11:47:30.002Z,25.66
2016-04-04T11:48:29.958Z,25.78
2016-04-04T11:49:29.897Z,25.83
2016-04-04T11:50:29.854Z,25.73
2016-04-04T11:51:29.825Z,25.68
2016-04-04T11:52:29.797Z,24.95
2016-04-04T11:53:29.768Z,25.36
2016-04-04T11:54:29.709Z,25.53
2016-04-04T11:55:29.821Z,25.65
2016-04-04T11:56:29.605Z,25.84
2016-04-04T11:57:29.577Z,25.91
2016-04-04T11:58:30.157Z,26
2016-04-04T11:59:29.504Z,25.75
2016-04-04T12:00:29.459Z,25.25
2016-04-04T12:01:29.415Z,25.54
2016-04-04T12:02:29.371Z,25.62
2016-04-04T12:03:29.342Z,25.78
2016-04-04T12:04:29.329Z,25.31
2016-04-04T12:05:29.253Z,25.22
2016-04-04T12:06:29.225Z,25.58
2016-04-04T12:07:29.165Z,25.38
2016-04-04T12:08:29.136Z,25.58
2016-04-04T12:09:29.109Z,25.38
2016-04-04T12:10:29.017Z,25.18
2016-04-04T12:11:29.004Z,25.35
2016-04-04T12:12:28.945Z,25.38
2016-04-04T12:13:28.901Z,25.47
2016-04-04T12:14:28.887Z,25.36
2016-04-04T12:15:28.843Z,25.38
2016-04-04T12:16:28.799Z,25.16
2016-04-04T12:17:28.739Z,25.22
2016-04-04T12:18:28.695Z,25.26
2016-04-04T12:19:28.635Z,25.14
2016-04-04T12:20:28.592Z,25.08
2016-04-04T12:21:28.563Z,25.36
2016-04-04T12:22:28.519Z,25.47
2016-04-04T12:23:28.475Z,25.06
2016-04-04T12:24:28.461Z,25.25
2016-04-04T12:25:28.402Z,25.36
2016-04-04T12:26:28.358Z,24.98
2016-04-04T12:27:28.297Z,24.99
2016-04-04T12:28:28.253Z,24.96
2016-04-04T12:29:28.224Z,25.28
2016-04-04T12:30:28.180Z,24.93
2016-04-04T12:31:28.136Z,24.7
2016-04-04T12:32:28.107Z,25.06
2016-04-04T12:33:28.048Z,24.85
2016-04-04T12:34:28.003Z,24.99
2016-04-04T12:35:27.959Z,25.29
2016-04-04T12:36:27.931Z,25.5
2016-04-04T12:37:27.918Z,25.43
2016-04-04T12:38:27.858Z,25.35
2016-04-04T12:39:27.783Z,25.54
2016-04-04T12:40:27.801Z,25.26
2016-04-04T12:41:27.726Z,25.06
2016-04-04T12:42:27.682Z,24.86
2016-04-04T12:43:27.653Z,25.08
2016-04-04T12:44:27.625Z,25.31
2016-04-04T12:45:27.564Z,25.17
2016-04-04T12:46:27.489Z,24.63
2016-04-04T12:47:27.476Z,24.43
2016-04-04T12:48:27.400Z,24.85
2016-04-04T12:49:27.372Z,25.16
2016-04-04T12:50:27.328Z,24.69
2016-04-04T12:51:27.283Z,24.78
2016-04-04T12:52:27.255Z,25.01
2016-04-04T12:53:27.226Z,24.93
2016-04-04T12:54:27.166Z,24.78
2016-04-04T12:55:27.122Z,24.99